sensor_id;sensor_type;location;lat;lon;timestamp;P1;durP1;ratioP1;P2;durP2;ratioP2
64885;SDS011;51514;52.206;5.114;2022-07-29T00:01:21;3.83;;;2.30;;
64885;SDS011;51514;52.206;5.114;2022-07-29T00:03:47;7.78;;;2.30;;
64885;SDS011;51514;52.206;5.114;2022-07-29T00:06:12;4.95;;;2.33;;
64885;SDS011;51514;52.206;5.114;2022-07-29T00:08:38;5.53;;;2.03;;
64885;SDS011;51514;52.206;5.114;2022-07-29T00:11:03;4.07;;;2.60;;
64885;SDS011;51514;52.206;5.114;2022-07-29T00:13:28;4.70;;;2.40;;
64885;SDS011;51514;52.206;5.114;2022-07-29T00:15:54;4.45;;;1.85;;
64885;SDS011;51514;52.206;5.114;2022-07-29T00:18:19;5.45;;;2.20;;
64885;SDS011;51514;52.206;5.114;2022-07-29T00:20:44;3.70;;;2.13;;
64885;SDS011;51514;52.206;5.114;2022-07-29T00:23:10;3.63;;;1.67;;
64885;SDS011;51514;52.206;5.114;2022-07-29T00:25:35;3.72;;;2.17;;
64885;SDS011;51514;52.206;5.114;2022-07-29T00:28:00;4.47;;;2.00;;
64885;SDS011;51514;52.206;5.114;2022-07-29T00:30:26;3.22;;;1.70;;
64885;SDS011;51514;52.206;5.114;2022-07-29T00:32:51;3.30;;;1.80;;
64885;SDS011;51514;52.206;5.114;2022-07-29T00:35:16;4.88;;;2.10;;
64885;SDS011;51514;52.206;5.114;2022-07-29T00:38:00;4.32;;;2.00;;
64885;SDS011;51514;52.206;5.114;2022-07-29T00:40:25;4.03;;;1.88;;
64885;SDS011;51514;52.206;5.114;2022-07-29T00:42:51;3.97;;;2.25;;
64885;SDS011;51514;52.206;5.114;2022-07-29T00:45:17;5.50;;;2.20;;
64885;SDS011;51514;52.206;5.114;2022-07-29T00:47:43;3.53;;;1.70;;
64885;SDS011;51514;52.206;5.114;2022-07-29T00:50:09;3.33;;;1.60;;
64885;SDS011;51514;52.206;5.114;2022-07-29T00:52:37;4.85;;;2.05;;
64885;SDS011;51514;52.206;5.114;2022-07-29T00:55:03;3.13;;;1.77;;
64885;SDS011;51514;52.206;5.114;2022-07-29T00:57:30;4.07;;;2.10;;
64885;SDS011;51514;52.206;5.114;2022-07-29T00:59:55;2.63;;;1.60;;
64885;SDS011;51514;52.206;5.114;2022-07-29T01:02:21;5.70;;;2.00;;
64885;SDS011;51514;52.206;5.114;2022-07-29T01:04:46;3.05;;;2.08;;
64885;SDS011;51514;52.206;5.114;2022-07-29T01:07:12;5.03;;;2.10;;
64885;SDS011;51514;52.206;5.114;2022-07-29T01:09:37;7.20;;;2.42;;
64885;SDS011;51514;52.206;5.114;2022-07-29T01:12:04;8.15;;;2.03;;
64885;SDS011;51514;52.206;5.114;2022-07-29T01:14:30;4.95;;;2.10;;
64885;SDS011;51514;52.206;5.114;2022-07-29T01:17:00;2.92;;;2.13;;
64885;SDS011;51514;52.206;5.114;2022-07-29T01:19:41;3.80;;;1.95;;
64885;SDS011;51514;52.206;5.114;2022-07-29T01:28:01;3.40;;;2.00;;
64885;SDS011;51514;52.206;5.114;2022-07-29T01:30:44;6.00;;;2.13;;
64885;SDS011;51514;52.206;5.114;2022-07-29T01:33:15;5.18;;;2.10;;
64885;SDS011;51514;52.206;5.114;2022-07-29T01:36:02;6.45;;;2.05;;
64885;SDS011;51514;52.206;5.114;2022-07-29T01:38:35;4.47;;;1.70;;
64885;SDS011;51514;52.206;5.114;2022-07-29T01:41:14;6.27;;;2.40;;
64885;SDS011;51514;52.206;5.114;2022-07-29T01:43:53;4.18;;;2.22;;
64885;SDS011;51514;52.206;5.114;2022-07-29T01:46:27;4.13;;;1.73;;
64885;SDS011;51514;52.206;5.114;2022-07-29T01:48:58;4.25;;;2.13;;
64885;SDS011;51514;52.206;5.114;2022-07-29T01:51:50;6.45;;;2.58;;
64885;SDS011;51514;52.206;5.114;2022-07-29T01:56:51;7.65;;;2.42;;
64885;SDS011;51514;52.206;5.114;2022-07-29T01:59:18;7.18;;;2.30;;
64885;SDS011;51514;52.206;5.114;2022-07-29T02:01:45;4.03;;;2.28;;
64885;SDS011;51514;52.206;5.114;2022-07-29T02:04:13;6.60;;;2.40;;
64885;SDS011;51514;52.206;5.114;2022-07-29T02:06:40;4.78;;;2.67;;
64885;SDS011;51514;52.206;5.114;2022-07-29T02:09:07;6.32;;;2.72;;
64885;SDS011;51514;52.206;5.114;2022-07-29T02:11:35;5.45;;;2.53;;
64885;SDS011;51514;52.206;5.114;2022-07-29T02:14:02;4.15;;;2.50;;
64885;SDS011;51514;52.206;5.114;2022-07-29T02:16:30;4.32;;;2.22;;
64885;SDS011;51514;52.206;5.114;2022-07-29T02:18:57;3.20;;;2.50;;
64885;SDS011;51514;52.206;5.114;2022-07-29T02:21:25;5.13;;;2.40;;
64885;SDS011;51514;52.206;5.114;2022-07-29T02:23:53;4.72;;;2.47;;
64885;SDS011;51514;52.206;5.114;2022-07-29T02:26:20;5.28;;;2.55;;
64885;SDS011;51514;52.206;5.114;2022-07-29T02:28:49;4.70;;;2.53;;
64885;SDS011;51514;52.206;5.114;2022-07-29T02:31:19;5.63;;;2.85;;
64885;SDS011;51514;52.206;5.114;2022-07-29T02:33:47;5.18;;;2.50;;
64885;SDS011;51514;52.206;5.114;2022-07-29T02:36:14;4.57;;;2.58;;
64885;SDS011;51514;52.206;5.114;2022-07-29T02:38:42;5.55;;;2.60;;
64885;SDS011;51514;52.206;5.114;2022-07-29T02:41:30;5.80;;;2.60;;
64885;SDS011;51514;52.206;5.114;2022-07-29T02:44:03;5.07;;;2.30;;
64885;SDS011;51514;52.206;5.114;2022-07-29T02:46:34;5.07;;;2.95;;
64885;SDS011;51514;52.206;5.114;2022-07-29T02:49:04;5.03;;;3.40;;
64885;SDS011;51514;52.206;5.114;2022-07-29T02:51:44;6.53;;;2.60;;
64885;SDS011;51514;52.206;5.114;2022-07-29T02:54:19;5.63;;;2.50;;
64885;SDS011;51514;52.206;5.114;2022-07-29T02:56:55;5.53;;;2.35;;
64885;SDS011;51514;52.206;5.114;2022-07-29T02:59:26;7.55;;;2.80;;
64885;SDS011;51514;52.206;5.114;2022-07-29T03:01:55;4.80;;;2.30;;
64885;SDS011;51514;52.206;5.114;2022-07-29T03:04:24;4.18;;;2.58;;
64885;SDS011;51514;52.206;5.114;2022-07-29T03:06:51;5.40;;;2.45;;
64885;SDS011;51514;52.206;5.114;2022-07-29T03:09:17;5.75;;;2.45;;
64885;SDS011;51514;52.206;5.114;2022-07-29T03:11:43;5.45;;;2.80;;
64885;SDS011;51514;52.206;5.114;2022-07-29T03:14:09;6.25;;;2.78;;
64885;SDS011;51514;52.206;5.114;2022-07-29T03:16:35;4.13;;;2.72;;
64885;SDS011;51514;52.206;5.114;2022-07-29T03:19:01;7.32;;;2.70;;
64885;SDS011;51514;52.206;5.114;2022-07-29T03:21:27;6.72;;;2.75;;
64885;SDS011;51514;52.206;5.114;2022-07-29T03:23:53;5.00;;;2.10;;
64885;SDS011;51514;52.206;5.114;2022-07-29T03:26:18;4.63;;;2.50;;
64885;SDS011;51514;52.206;5.114;2022-07-29T03:28:44;5.85;;;3.67;;
64885;SDS011;51514;52.206;5.114;2022-07-29T03:31:09;4.28;;;2.90;;
64885;SDS011;51514;52.206;5.114;2022-07-29T03:33:34;5.55;;;2.70;;
64885;SDS011;51514;52.206;5.114;2022-07-29T03:35:59;4.63;;;2.63;;
64885;SDS011;51514;52.206;5.114;2022-07-29T03:38:27;4.72;;;2.60;;
64885;SDS011;51514;52.206;5.114;2022-07-29T03:41:03;5.65;;;2.53;;
64885;SDS011;51514;52.206;5.114;2022-07-29T03:43:33;4.40;;;2.70;;
64885;SDS011;51514;52.206;5.114;2022-07-29T03:46:01;5.97;;;2.30;;
64885;SDS011;51514;52.206;5.114;2022-07-29T03:48:29;7.18;;;2.60;;
64885;SDS011;51514;52.206;5.114;2022-07-29T03:51:00;5.85;;;2.47;;
64885;SDS011;51514;52.206;5.114;2022-07-29T03:53:25;7.00;;;2.95;;
64885;SDS011;51514;52.206;5.114;2022-07-29T03:55:52;3.75;;;2.30;;
64885;SDS011;51514;52.206;5.114;2022-07-29T03:58:23;6.45;;;2.58;;
64885;SDS011;51514;52.206;5.114;2022-07-29T04:00:51;4.53;;;2.03;;
64885;SDS011;51514;52.206;5.114;2022-07-29T04:03:18;5.55;;;2.53;;
64885;SDS011;51514;52.206;5.114;2022-07-29T04:05:44;4.78;;;2.95;;
64885;SDS011;51514;52.206;5.114;2022-07-29T04:08:09;4.07;;;2.38;;
64885;SDS011;51514;52.206;5.114;2022-07-29T04:10:34;5.32;;;2.75;;
64885;SDS011;51514;52.206;5.114;2022-07-29T04:13:00;5.63;;;2.40;;
64885;SDS011;51514;52.206;5.114;2022-07-29T04:15:25;6.25;;;2.65;;
64885;SDS011;51514;52.206;5.114;2022-07-29T04:17:53;4.45;;;2.20;;
64885;SDS011;51514;52.206;5.114;2022-07-29T04:20:18;8.18;;;3.25;;
64885;SDS011;51514;52.206;5.114;2022-07-29T04:22:44;6.10;;;2.70;;
64885;SDS011;51514;52.206;5.114;2022-07-29T04:25:09;5.57;;;2.70;;
64885;SDS011;51514;52.206;5.114;2022-07-29T04:27:34;5.63;;;2.45;;
64885;SDS011;51514;52.206;5.114;2022-07-29T04:30:00;6.35;;;2.88;;
64885;SDS011;51514;52.206;5.114;2022-07-29T04:32:26;6.35;;;2.40;;
64885;SDS011;51514;52.206;5.114;2022-07-29T04:34:51;4.32;;;2.47;;
64885;SDS011;51514;52.206;5.114;2022-07-29T04:37:17;5.82;;;2.70;;
64885;SDS011;51514;52.206;5.114;2022-07-29T04:39:43;4.43;;;2.38;;
64885;SDS011;51514;52.206;5.114;2022-07-29T04:42:08;5.85;;;2.72;;
64885;SDS011;51514;52.206;5.114;2022-07-29T04:44:34;5.78;;;2.45;;
64885;SDS011;51514;52.206;5.114;2022-07-29T04:46:59;6.07;;;2.55;;
64885;SDS011;51514;52.206;5.114;2022-07-29T04:49:25;7.47;;;2.70;;
64885;SDS011;51514;52.206;5.114;2022-07-29T04:51:50;4.80;;;2.75;;
64885;SDS011;51514;52.206;5.114;2022-07-29T04:54:15;6.32;;;2.58;;
64885;SDS011;51514;52.206;5.114;2022-07-29T04:56:41;6.25;;;2.58;;
64885;SDS011;51514;52.206;5.114;2022-07-29T04:59:06;4.45;;;2.35;;
64885;SDS011;51514;52.206;5.114;2022-07-29T05:01:32;4.95;;;2.40;;
64885;SDS011;51514;52.206;5.114;2022-07-29T05:03:57;4.68;;;2.45;;
64885;SDS011;51514;52.206;5.114;2022-07-29T05:06:22;4.55;;;2.80;;
64885;SDS011;51514;52.206;5.114;2022-07-29T05:08:47;4.40;;;2.67;;
64885;SDS011;51514;52.206;5.114;2022-07-29T05:11:13;4.85;;;2.72;;
64885;SDS011;51514;52.206;5.114;2022-07-29T05:13:38;6.07;;;3.00;;
64885;SDS011;51514;52.206;5.114;2022-07-29T05:16:04;6.20;;;2.70;;
64885;SDS011;51514;52.206;5.114;2022-07-29T05:18:29;6.82;;;2.72;;
64885;SDS011;51514;52.206;5.114;2022-07-29T05:20:55;7.72;;;2.80;;
64885;SDS011;51514;52.206;5.114;2022-07-29T05:23:20;5.30;;;2.97;;
64885;SDS011;51514;52.206;5.114;2022-07-29T05:25:46;4.57;;;2.75;;
64885;SDS011;51514;52.206;5.114;2022-07-29T05:28:11;5.13;;;2.70;;
64885;SDS011;51514;52.206;5.114;2022-07-29T05:30:36;4.82;;;2.65;;
64885;SDS011;51514;52.206;5.114;2022-07-29T05:33:02;6.45;;;2.85;;
64885;SDS011;51514;52.206;5.114;2022-07-29T05:35:27;5.22;;;2.38;;
64885;SDS011;51514;52.206;5.114;2022-07-29T05:37:52;5.75;;;2.55;;
64885;SDS011;51514;52.206;5.114;2022-07-29T05:40:18;3.70;;;2.47;;
64885;SDS011;51514;52.206;5.114;2022-07-29T05:42:43;6.65;;;2.80;;
64885;SDS011;51514;52.206;5.114;2022-07-29T05:45:09;5.60;;;2.63;;
64885;SDS011;51514;52.206;5.114;2022-07-29T05:47:35;5.72;;;2.47;;
64885;SDS011;51514;52.206;5.114;2022-07-29T05:50:00;6.68;;;3.00;;
64885;SDS011;51514;52.206;5.114;2022-07-29T05:52:25;8.82;;;2.78;;
64885;SDS011;51514;52.206;5.114;2022-07-29T05:54:51;4.05;;;2.40;;
64885;SDS011;51514;52.206;5.114;2022-07-29T05:57:17;5.75;;;2.78;;
64885;SDS011;51514;52.206;5.114;2022-07-29T05:59:43;7.28;;;2.97;;
64885;SDS011;51514;52.206;5.114;2022-07-29T06:02:08;4.20;;;2.50;;
64885;SDS011;51514;52.206;5.114;2022-07-29T06:04:34;6.13;;;2.67;;
64885;SDS011;51514;52.206;5.114;2022-07-29T06:06:59;4.15;;;2.80;;
64885;SDS011;51514;52.206;5.114;2022-07-29T06:09:24;6.07;;;3.60;;
64885;SDS011;51514;52.206;5.114;2022-07-29T06:11:50;4.70;;;2.70;;
64885;SDS011;51514;52.206;5.114;2022-07-29T06:14:17;6.15;;;3.05;;
64885;SDS011;51514;52.206;5.114;2022-07-29T06:16:42;3.85;;;2.30;;
64885;SDS011;51514;52.206;5.114;2022-07-29T06:19:07;3.63;;;2.47;;
64885;SDS011;51514;52.206;5.114;2022-07-29T06:21:33;6.20;;;2.75;;
64885;SDS011;51514;52.206;5.114;2022-07-29T06:23:58;8.38;;;2.80;;
64885;SDS011;51514;52.206;5.114;2022-07-29T06:26:24;10.05;;;2.90;;
64885;SDS011;51514;52.206;5.114;2022-07-29T06:28:49;4.75;;;2.60;;
64885;SDS011;51514;52.206;5.114;2022-07-29T06:31:14;6.53;;;2.80;;
64885;SDS011;51514;52.206;5.114;2022-07-29T06:33:40;5.65;;;2.65;;
64885;SDS011;51514;52.206;5.114;2022-07-29T06:36:05;5.03;;;2.67;;
64885;SDS011;51514;52.206;5.114;2022-07-29T06:38:32;6.00;;;2.90;;
64885;SDS011;51514;52.206;5.114;2022-07-29T06:40:58;5.97;;;2.75;;
64885;SDS011;51514;52.206;5.114;2022-07-29T06:43:24;4.30;;;2.58;;
64885;SDS011;51514;52.206;5.114;2022-07-29T06:45:50;4.95;;;2.72;;
64885;SDS011;51514;52.206;5.114;2022-07-29T06:48:15;5.93;;;2.80;;
64885;SDS011;51514;52.206;5.114;2022-07-29T06:50:41;4.70;;;2.67;;
64885;SDS011;51514;52.206;5.114;2022-07-29T06:53:06;7.60;;;2.85;;
64885;SDS011;51514;52.206;5.114;2022-07-29T06:55:31;4.78;;;2.72;;
64885;SDS011;51514;52.206;5.114;2022-07-29T06:57:56;6.63;;;2.58;;
64885;SDS011;51514;52.206;5.114;2022-07-29T07:00:22;8.45;;;2.65;;
64885;SDS011;51514;52.206;5.114;2022-07-29T07:02:47;8.50;;;3.10;;
64885;SDS011;51514;52.206;5.114;2022-07-29T07:05:12;3.60;;;2.35;;
64885;SDS011;51514;52.206;5.114;2022-07-29T07:07:38;5.88;;;3.40;;
64885;SDS011;51514;52.206;5.114;2022-07-29T07:10:03;5.65;;;3.15;;
64885;SDS011;51514;52.206;5.114;2022-07-29T07:12:29;5.80;;;2.70;;
64885;SDS011;51514;52.206;5.114;2022-07-29T07:14:54;3.85;;;2.60;;
64885;SDS011;51514;52.206;5.114;2022-07-29T07:17:19;5.85;;;3.08;;
64885;SDS011;51514;52.206;5.114;2022-07-29T07:19:45;5.88;;;2.80;;
64885;SDS011;51514;52.206;5.114;2022-07-29T07:22:10;6.28;;;2.72;;
64885;SDS011;51514;52.206;5.114;2022-07-29T07:24:35;7.25;;;2.90;;
64885;SDS011;51514;52.206;5.114;2022-07-29T07:27:01;6.72;;;3.28;;
64885;SDS011;51514;52.206;5.114;2022-07-29T07:29:26;4.13;;;2.90;;
64885;SDS011;51514;52.206;5.114;2022-07-29T07:31:52;10.85;;;3.47;;
64885;SDS011;51514;52.206;5.114;2022-07-29T07:34:17;5.35;;;3.33;;
64885;SDS011;51514;52.206;5.114;2022-07-29T07:36:42;8.77;;;3.80;;
64885;SDS011;51514;52.206;5.114;2022-07-29T07:39:08;6.72;;;3.15;;
64885;SDS011;51514;52.206;5.114;2022-07-29T07:41:33;7.97;;;3.05;;
64885;SDS011;51514;52.206;5.114;2022-07-29T07:43:58;4.32;;;3.05;;
64885;SDS011;51514;52.206;5.114;2022-07-29T07:46:24;7.72;;;3.28;;
64885;SDS011;51514;52.206;5.114;2022-07-29T07:48:49;6.30;;;3.20;;
64885;SDS011;51514;52.206;5.114;2022-07-29T07:51:14;6.82;;;3.47;;
64885;SDS011;51514;52.206;5.114;2022-07-29T07:53:40;4.82;;;3.00;;
64885;SDS011;51514;52.206;5.114;2022-07-29T07:56:05;5.55;;;3.10;;
64885;SDS011;51514;52.206;5.114;2022-07-29T07:58:32;4.60;;;3.13;;
64885;SDS011;51514;52.206;5.114;2022-07-29T08:00:57;5.50;;;3.40;;
64885;SDS011;51514;52.206;5.114;2022-07-29T08:03:23;7.07;;;3.47;;
64885;SDS011;51514;52.206;5.114;2022-07-29T08:05:48;5.70;;;3.55;;
64885;SDS011;51514;52.206;5.114;2022-07-29T08:08:15;6.68;;;2.97;;
64885;SDS011;51514;52.206;5.114;2022-07-29T08:10:41;9.00;;;3.50;;
64885;SDS011;51514;52.206;5.114;2022-07-29T08:13:20;5.47;;;3.58;;
64885;SDS011;51514;52.206;5.114;2022-07-29T08:15:47;8.38;;;3.22;;
64885;SDS011;51514;52.206;5.114;2022-07-29T08:18:12;5.63;;;3.08;;
64885;SDS011;51514;52.206;5.114;2022-07-29T08:20:38;5.35;;;2.97;;
64885;SDS011;51514;52.206;5.114;2022-07-29T08:23:05;10.82;;;3.33;;
64885;SDS011;51514;52.206;5.114;2022-07-29T08:25:33;5.20;;;3.25;;
64885;SDS011;51514;52.206;5.114;2022-07-29T08:28:00;6.90;;;3.30;;
64885;SDS011;51514;52.206;5.114;2022-07-29T08:30:25;5.55;;;2.85;;
64885;SDS011;51514;52.206;5.114;2022-07-29T08:32:51;7.97;;;3.10;;
64885;SDS011;51514;52.206;5.114;2022-07-29T08:35:18;7.70;;;2.47;;
64885;SDS011;51514;52.206;5.114;2022-07-29T08:37:44;7.38;;;3.00;;
64885;SDS011;51514;52.206;5.114;2022-07-29T08:40:09;6.25;;;2.78;;
64885;SDS011;51514;52.206;5.114;2022-07-29T08:42:35;6.47;;;3.03;;
64885;SDS011;51514;52.206;5.114;2022-07-29T08:45:00;6.00;;;3.00;;
64885;SDS011;51514;52.206;5.114;2022-07-29T08:47:26;5.53;;;3.17;;
64885;SDS011;51514;52.206;5.114;2022-07-29T08:49:52;5.95;;;2.70;;
64885;SDS011;51514;52.206;5.114;2022-07-29T08:52:18;7.63;;;2.95;;
64885;SDS011;51514;52.206;5.114;2022-07-29T08:54:44;7.43;;;3.08;;
64885;SDS011;51514;52.206;5.114;2022-07-29T08:57:12;6.97;;;3.08;;
64885;SDS011;51514;52.206;5.114;2022-07-29T08:59:40;6.70;;;3.03;;
64885;SDS011;51514;52.206;5.114;2022-07-29T09:02:08;6.50;;;3.58;;
64885;SDS011;51514;52.206;5.114;2022-07-29T09:04:40;6.88;;;3.25;;
64885;SDS011;51514;52.206;5.114;2022-07-29T09:07:06;7.68;;;3.00;;
64885;SDS011;51514;52.206;5.114;2022-07-29T09:09:33;5.40;;;2.72;;
64885;SDS011;51514;52.206;5.114;2022-07-29T09:11:58;4.32;;;2.83;;
64885;SDS011;51514;52.206;5.114;2022-07-29T09:14:24;8.65;;;3.38;;
64885;SDS011;51514;52.206;5.114;2022-07-29T09:16:53;4.93;;;3.38;;
64885;SDS011;51514;52.206;5.114;2022-07-29T09:19:25;9.40;;;3.30;;
64885;SDS011;51514;52.206;5.114;2022-07-29T09:21:55;7.32;;;2.78;;
64885;SDS011;51514;52.206;5.114;2022-07-29T09:26:59;7.50;;;3.17;;
64885;SDS011;51514;52.206;5.114;2022-07-29T09:29:25;9.43;;;2.97;;
64885;SDS011;51514;52.206;5.114;2022-07-29T09:31:52;5.57;;;3.35;;
64885;SDS011;51514;52.206;5.114;2022-07-29T09:34:26;6.60;;;3.05;;
64885;SDS011;51514;52.206;5.114;2022-07-29T09:36:54;7.97;;;3.20;;
64885;SDS011;51514;52.206;5.114;2022-07-29T09:39:33;4.68;;;3.10;;
64885;SDS011;51514;52.206;5.114;2022-07-29T09:42:02;6.03;;;3.10;;
64885;SDS011;51514;52.206;5.114;2022-07-29T09:44:48;7.28;;;3.33;;
64885;SDS011;51514;52.206;5.114;2022-07-29T09:47:16;8.68;;;3.55;;
64885;SDS011;51514;52.206;5.114;2022-07-29T09:49:56;8.45;;;3.10;;
64885;SDS011;51514;52.206;5.114;2022-07-29T09:52:23;9.45;;;3.30;;
64885;SDS011;51514;52.206;5.114;2022-07-29T09:54:49;6.60;;;3.10;;
64885;SDS011;51514;52.206;5.114;2022-07-29T09:57:48;7.28;;;3.60;;
64885;SDS011;51514;52.206;5.114;2022-07-29T10:00:08;4.38;;;2.83;;
64885;SDS011;51514;52.206;5.114;2022-07-29T10:02:37;5.80;;;3.47;;
64885;SDS011;51514;52.206;5.114;2022-07-29T10:05:05;8.88;;;3.08;;
64885;SDS011;51514;52.206;5.114;2022-07-29T10:07:58;5.88;;;3.30;;
64885;SDS011;51514;52.206;5.114;2022-07-29T10:10:26;7.78;;;3.30;;
64885;SDS011;51514;52.206;5.114;2022-07-29T10:12:57;5.35;;;3.20;;
64885;SDS011;51514;52.206;5.114;2022-07-29T10:15:25;7.90;;;3.40;;
64885;SDS011;51514;52.206;5.114;2022-07-29T10:17:53;5.40;;;3.28;;
64885;SDS011;51514;52.206;5.114;2022-07-29T10:20:20;6.43;;;3.40;;
64885;SDS011;51514;52.206;5.114;2022-07-29T10:22:46;6.97;;;3.40;;
64885;SDS011;51514;52.206;5.114;2022-07-29T10:25:12;6.97;;;3.53;;
64885;SDS011;51514;52.206;5.114;2022-07-29T10:27:37;7.85;;;2.95;;
64885;SDS011;51514;52.206;5.114;2022-07-29T10:30:04;7.10;;;3.22;;
64885;SDS011;51514;52.206;5.114;2022-07-29T10:44:00;8.23;;;3.33;;
64885;SDS011;51514;52.206;5.114;2022-07-29T10:46:28;7.70;;;3.33;;
64885;SDS011;51514;52.206;5.114;2022-07-29T10:49:10;6.40;;;3.30;;
64885;SDS011;51514;52.206;5.114;2022-07-29T10:59:40;5.93;;;3.80;;
64885;SDS011;51514;52.206;5.114;2022-07-29T11:07:22;10.73;;;3.38;;
64885;SDS011;51514;52.206;5.114;2022-07-29T11:10:33;8.68;;;3.53;;
64885;SDS011;51514;52.206;5.114;2022-07-29T11:15:02;6.68;;;3.30;;
64885;SDS011;51514;52.206;5.114;2022-07-29T11:17:30;6.25;;;3.05;;
64885;SDS011;51514;52.206;5.114;2022-07-29T11:23:26;6.78;;;3.58;;
64885;SDS011;51514;52.206;5.114;2022-07-29T11:28:52;7.82;;;3.33;;
64885;SDS011;51514;52.206;5.114;2022-07-29T11:34:21;9.35;;;3.85;;
64885;SDS011;51514;52.206;5.114;2022-07-29T11:39:39;6.95;;;3.45;;
64885;SDS011;51514;52.206;5.114;2022-07-29T11:47:20;8.63;;;3.35;;
64885;SDS011;51514;52.206;5.114;2022-07-29T11:49:46;6.15;;;3.70;;
64885;SDS011;51514;52.206;5.114;2022-07-29T11:52:12;9.70;;;3.65;;
64885;SDS011;51514;52.206;5.114;2022-07-29T11:54:38;6.63;;;3.50;;
64885;SDS011;51514;52.206;5.114;2022-07-29T11:59:38;7.72;;;3.50;;
64885;SDS011;51514;52.206;5.114;2022-07-29T12:02:04;8.25;;;3.30;;
64885;SDS011;51514;52.206;5.114;2022-07-29T12:04:29;8.27;;;3.13;;
64885;SDS011;51514;52.206;5.114;2022-07-29T12:06:55;5.50;;;2.95;;
64885;SDS011;51514;52.206;5.114;2022-07-29T12:09:21;5.57;;;3.20;;
64885;SDS011;51514;52.206;5.114;2022-07-29T12:11:48;6.47;;;3.15;;
64885;SDS011;51514;52.206;5.114;2022-07-29T12:14:30;7.75;;;3.08;;
64885;SDS011;51514;52.206;5.114;2022-07-29T12:16:58;7.57;;;3.45;;
64885;SDS011;51514;52.206;5.114;2022-07-29T12:19:24;10.73;;;3.55;;
64885;SDS011;51514;52.206;5.114;2022-07-29T12:21:51;7.80;;;3.53;;
64885;SDS011;51514;52.206;5.114;2022-07-29T12:24:19;10.98;;;3.15;;
64885;SDS011;51514;52.206;5.114;2022-07-29T12:26:56;4.30;;;2.47;;
64885;SDS011;51514;52.206;5.114;2022-07-29T12:29:22;6.95;;;3.17;;
64885;SDS011;51514;52.206;5.114;2022-07-29T12:31:51;5.25;;;3.08;;
64885;SDS011;51514;52.206;5.114;2022-07-29T12:34:22;8.65;;;3.28;;
64885;SDS011;51514;52.206;5.114;2022-07-29T12:36:49;8.27;;;3.00;;
64885;SDS011;51514;52.206;5.114;2022-07-29T12:39:15;6.38;;;2.90;;
64885;SDS011;51514;52.206;5.114;2022-07-29T12:41:42;8.73;;;3.00;;
64885;SDS011;51514;52.206;5.114;2022-07-29T12:44:09;6.47;;;3.38;;
64885;SDS011;51514;52.206;5.114;2022-07-29T12:46:34;5.47;;;2.58;;
64885;SDS011;51514;52.206;5.114;2022-07-29T12:48:59;6.32;;;2.70;;
64885;SDS011;51514;52.206;5.114;2022-07-29T12:51:29;9.30;;;3.63;;
64885;SDS011;51514;52.206;5.114;2022-07-29T12:54:02;5.40;;;2.95;;
64885;SDS011;51514;52.206;5.114;2022-07-29T12:56:32;8.25;;;3.00;;
64885;SDS011;51514;52.206;5.114;2022-07-29T12:58:58;3.67;;;2.80;;
64885;SDS011;51514;52.206;5.114;2022-07-29T13:01:24;7.45;;;3.05;;
64885;SDS011;51514;52.206;5.114;2022-07-29T13:06:29;6.10;;;2.70;;
64885;SDS011;51514;52.206;5.114;2022-07-29T13:11:42;7.82;;;2.92;;
64885;SDS011;51514;52.206;5.114;2022-07-29T13:14:10;9.43;;;3.08;;
64885;SDS011;51514;52.206;5.114;2022-07-29T13:16:37;7.75;;;2.97;;
64885;SDS011;51514;52.206;5.114;2022-07-29T13:19:31;6.07;;;2.65;;
64885;SDS011;51514;52.206;5.114;2022-07-29T13:22:00;7.50;;;2.70;;
64885;SDS011;51514;52.206;5.114;2022-07-29T13:24:25;7.78;;;3.30;;
64885;SDS011;51514;52.206;5.114;2022-07-29T13:26:50;6.00;;;2.35;;
64885;SDS011;51514;52.206;5.114;2022-07-29T13:29:16;6.18;;;2.60;;
64885;SDS011;51514;52.206;5.114;2022-07-29T13:31:42;9.50;;;2.33;;
64885;SDS011;51514;52.206;5.114;2022-07-29T13:34:07;4.75;;;2.53;;
64885;SDS011;51514;52.206;5.114;2022-07-29T13:36:33;8.95;;;3.17;;
64885;SDS011;51514;52.206;5.114;2022-07-29T13:38:58;6.88;;;2.78;;
64885;SDS011;51514;52.206;5.114;2022-07-29T13:41:24;5.45;;;2.58;;
64885;SDS011;51514;52.206;5.114;2022-07-29T13:43:49;6.05;;;2.42;;
64885;SDS011;51514;52.206;5.114;2022-07-29T13:46:14;6.75;;;2.70;;
64885;SDS011;51514;52.206;5.114;2022-07-29T13:48:40;5.95;;;2.63;;
64885;SDS011;51514;52.206;5.114;2022-07-29T13:51:06;7.28;;;2.70;;
64885;SDS011;51514;52.206;5.114;2022-07-29T13:53:32;3.50;;;2.20;;
64885;SDS011;51514;52.206;5.114;2022-07-29T13:55:57;7.78;;;2.35;;
64885;SDS011;51514;52.206;5.114;2022-07-29T13:58:23;6.47;;;2.60;;
64885;SDS011;51514;52.206;5.114;2022-07-29T14:00:48;9.02;;;3.08;;
64885;SDS011;51514;52.206;5.114;2022-07-29T14:03:14;5.55;;;2.40;;
64885;SDS011;51514;52.206;5.114;2022-07-29T14:05:39;4.75;;;2.28;;
64885;SDS011;51514;52.206;5.114;2022-07-29T14:08:05;4.28;;;2.00;;
64885;SDS011;51514;52.206;5.114;2022-07-29T14:10:30;5.28;;;2.35;;
64885;SDS011;51514;52.206;5.114;2022-07-29T14:12:55;5.60;;;2.53;;
64885;SDS011;51514;52.206;5.114;2022-07-29T14:15:20;7.30;;;1.95;;
64885;SDS011;51514;52.206;5.114;2022-07-29T14:17:46;6.43;;;2.80;;
64885;SDS011;51514;52.206;5.114;2022-07-29T14:20:11;6.68;;;2.47;;
64885;SDS011;51514;52.206;5.114;2022-07-29T14:22:37;5.43;;;2.40;;
64885;SDS011;51514;52.206;5.114;2022-07-29T14:25:02;5.18;;;2.08;;
64885;SDS011;51514;52.206;5.114;2022-07-29T14:27:28;8.15;;;2.40;;
64885;SDS011;51514;52.206;5.114;2022-07-29T14:29:53;5.13;;;2.17;;
64885;SDS011;51514;52.206;5.114;2022-07-29T14:32:18;6.47;;;2.38;;
64885;SDS011;51514;52.206;5.114;2022-07-29T14:34:44;5.93;;;2.28;;
64885;SDS011;51514;52.206;5.114;2022-07-29T14:37:09;6.70;;;2.85;;
64885;SDS011;51514;52.206;5.114;2022-07-29T14:39:34;6.47;;;2.90;;
64885;SDS011;51514;52.206;5.114;2022-07-29T14:42:03;7.38;;;2.45;;
64885;SDS011;51514;52.206;5.114;2022-07-29T14:44:29;6.78;;;2.55;;
64885;SDS011;51514;52.206;5.114;2022-07-29T14:46:56;5.60;;;2.25;;
64885;SDS011;51514;52.206;5.114;2022-07-29T14:49:24;5.43;;;2.63;;
64885;SDS011;51514;52.206;5.114;2022-07-29T14:51:50;6.80;;;2.13;;
64885;SDS011;51514;52.206;5.114;2022-07-29T14:54:16;3.47;;;2.05;;
64885;SDS011;51514;52.206;5.114;2022-07-29T14:56:41;6.15;;;2.70;;
64885;SDS011;51514;52.206;5.114;2022-07-29T14:59:06;6.30;;;2.45;;
64885;SDS011;51514;52.206;5.114;2022-07-29T15:01:32;6.80;;;2.83;;
64885;SDS011;51514;52.206;5.114;2022-07-29T15:03:57;5.85;;;2.72;;
64885;SDS011;51514;52.206;5.114;2022-07-29T15:06:22;5.20;;;2.40;;
64885;SDS011;51514;52.206;5.114;2022-07-29T15:08:47;5.28;;;2.28;;
64885;SDS011;51514;52.206;5.114;2022-07-29T15:11:13;6.03;;;2.80;;
64885;SDS011;51514;52.206;5.114;2022-07-29T15:13:38;6.72;;;2.60;;
64885;SDS011;51514;52.206;5.114;2022-07-29T15:16:04;7.63;;;2.33;;
64885;SDS011;51514;52.206;5.114;2022-07-29T15:18:30;5.13;;;2.72;;
64885;SDS011;51514;52.206;5.114;2022-07-29T15:20:55;6.18;;;2.47;;
64885;SDS011;51514;52.206;5.114;2022-07-29T15:23:20;5.57;;;2.30;;
64885;SDS011;51514;52.206;5.114;2022-07-29T15:25:46;6.35;;;2.58;;
64885;SDS011;51514;52.206;5.114;2022-07-29T15:28:11;10.90;;;3.08;;
64885;SDS011;51514;52.206;5.114;2022-07-29T15:30:36;5.97;;;2.90;;
64885;SDS011;51514;52.206;5.114;2022-07-29T15:33:05;5.15;;;2.75;;
64885;SDS011;51514;52.206;5.114;2022-07-29T15:35:32;7.50;;;2.80;;
64885;SDS011;51514;52.206;5.114;2022-07-29T15:37:58;7.53;;;3.10;;
64885;SDS011;51514;52.206;5.114;2022-07-29T15:40:24;4.82;;;2.72;;
64885;SDS011;51514;52.206;5.114;2022-07-29T15:42:49;6.32;;;3.10;;
64885;SDS011;51514;52.206;5.114;2022-07-29T15:45:14;6.28;;;2.92;;
64885;SDS011;51514;52.206;5.114;2022-07-29T15:47:40;7.28;;;3.00;;
64885;SDS011;51514;52.206;5.114;2022-07-29T15:50:05;9.85;;;3.25;;
64885;SDS011;51514;52.206;5.114;2022-07-29T15:52:36;6.63;;;3.03;;